Terminal Aerodrome Forecast
Issued by NWS Jackson, KY

Home | Current Version | Previous Version | Text Only | Print | Product List | Glossary On
Versions: 1 2 3 4 5 6 7 8 9 10 11 12 13 14 15 16 17 18
000
FTUS43 KJKL 221315 CCA
TAFLOZ
TAF COR
KLOZ 221315Z 2213/2312 00000KT 1/2SM FG VV002
     FM221330 VRB04KT P6SM SKC
     FM230800 VRB03KT 3SM BR SCT250=

USA.gov is the U.S. government's official web portal to all federal, state and local government web resources and services.